sensor_id;sensor_type;location;lat;lon;timestamp;P1;P2;P0
73623;PMS5003;61921;53.226;-1.296;2023-05-14T00:02:17;72;68;
73623;PMS5003;61921;53.226;-1.296;2023-05-14T00:04:42;73;70;
73623;PMS5003;61921;53.226;-1.296;2023-05-14T00:07:08;71;67;
73623;PMS5003;61921;53.226;-1.296;2023-05-14T00:09:33;66;63;
73623;PMS5003;61921;53.226;-1.296;2023-05-14T00:11:58;71;65;
73623;PMS5003;61921;53.226;-1.296;2023-05-14T00:14:23;72;67;
73623;PMS5003;61921;53.226;-1.296;2023-05-14T00:16:49;70;62;
73623;PMS5003;61921;53.226;-1.296;2023-05-14T00:19:15;78;68;
73623;PMS5003;61921;53.226;-1.296;2023-05-14T00:21:40;77;70;
73623;PMS5003;61921;53.226;-1.296;2023-05-14T00:24:06;79;74;
73623;PMS5003;61921;53.226;-1.296;2023-05-14T00:26:31;77;70;
73623;PMS5003;61921;53.226;-1.296;2023-05-14T00:28:57;70;62;
73623;PMS5003;61921;53.226;-1.296;2023-05-14T00:31:23;76;68;
73623;PMS5003;61921;53.226;-1.296;2023-05-14T00:33:48;76;73;
73623;PMS5003;61921;53.226;-1.296;2023-05-14T00:36:14;82;75;
73623;PMS5003;61921;53.226;-1.296;2023-05-14T00:38:39;74;66;
73623;PMS5003;61921;53.226;-1.296;2023-05-14T00:41:05;78;66;
73623;PMS5003;61921;53.226;-1.296;2023-05-14T00:43:29;76;73;
73623;PMS5003;61921;53.226;-1.296;2023-05-14T00:45:55;75;70;
73623;PMS5003;61921;53.226;-1.296;2023-05-14T00:48:20;76;67;
73623;PMS5003;61921;53.226;-1.296;2023-05-14T00:50:46;73;70;
73623;PMS5003;61921;53.226;-1.296;2023-05-14T00:53:11;75;68;
73623;PMS5003;61921;53.226;-1.296;2023-05-14T00:55:36;77;66;
73623;PMS5003;61921;53.226;-1.296;2023-05-14T00:58:02;70;62;
73623;PMS5003;61921;53.226;-1.296;2023-05-14T01:00:27;80;75;
73623;PMS5003;61921;53.226;-1.296;2023-05-14T01:02:53;88;78;
73623;PMS5003;61921;53.226;-1.296;2023-05-14T01:05:19;81;70;
73623;PMS5003;61921;53.226;-1.296;2023-05-14T01:07:47;72;65;
73623;PMS5003;61921;53.226;-1.296;2023-05-14T01:10:10;77;71;
73623;PMS5003;61921;53.226;-1.296;2023-05-14T01:12:36;92;82;
73623;PMS5003;61921;53.226;-1.296;2023-05-14T01:15:05;74;70;
73623;PMS5003;61921;53.226;-1.296;2023-05-14T01:17:27;79;72;
73623;PMS5003;61921;53.226;-1.296;2023-05-14T01:19:52;80;71;
73623;PMS5003;61921;53.226;-1.296;2023-05-14T01:22:17;88;79;
73623;PMS5003;61921;53.226;-1.296;2023-05-14T01:24:43;79;70;
73623;PMS5003;61921;53.226;-1.296;2023-05-14T01:27:10;79;72;
73623;PMS5003;61921;53.226;-1.296;2023-05-14T01:29:35;78;72;
73623;PMS5003;61921;53.226;-1.296;2023-05-14T01:32:01;78;74;
73623;PMS5003;61921;53.226;-1.296;2023-05-14T01:34:27;86;77;
73623;PMS5003;61921;53.226;-1.296;2023-05-14T01:36:51;84;77;
73623;PMS5003;61921;53.226;-1.296;2023-05-14T01:39:17;80;75;
73623;PMS5003;61921;53.226;-1.296;2023-05-14T01:41:43;83;73;
73623;PMS5003;61921;53.226;-1.296;2023-05-14T01:44:08;86;79;
73623;PMS5003;61921;53.226;-1.296;2023-05-14T01:46:33;83;70;
73623;PMS5003;61921;53.226;-1.296;2023-05-14T01:48:59;78;69;
73623;PMS5003;61921;53.226;-1.296;2023-05-14T01:51:25;85;76;
73623;PMS5003;61921;53.226;-1.296;2023-05-14T01:53:51;68;65;
73623;PMS5003;61921;53.226;-1.296;2023-05-14T01:56:16;78;71;
73623;PMS5003;61921;53.226;-1.296;2023-05-14T01:58:41;72;70;
73623;PMS5003;61921;53.226;-1.296;2023-05-14T02:01:06;85;75;
73623;PMS5003;61921;53.226;-1.296;2023-05-14T02:03:31;72;65;
73623;PMS5003;61921;53.226;-1.296;2023-05-14T02:05:57;70;64;
73623;PMS5003;61921;53.226;-1.296;2023-05-14T02:08:22;74;70;
73623;PMS5003;61921;53.226;-1.296;2023-05-14T02:10:47;68;66;
73623;PMS5003;61921;53.226;-1.296;2023-05-14T02:13:13;71;66;
73623;PMS5003;61921;53.226;-1.296;2023-05-14T02:15:39;72;69;
73623;PMS5003;61921;53.226;-1.296;2023-05-14T02:18:04;75;68;
73623;PMS5003;61921;53.226;-1.296;2023-05-14T02:20:30;66;63;
73623;PMS5003;61921;53.226;-1.296;2023-05-14T02:22:56;73;70;
73623;PMS5003;61921;53.226;-1.296;2023-05-14T02:25:21;64;64;
73623;PMS5003;61921;53.226;-1.296;2023-05-14T02:27:46;67;64;
73623;PMS5003;61921;53.226;-1.296;2023-05-14T02:30:11;65;60;
73623;PMS5003;61921;53.226;-1.296;2023-05-14T02:32:37;70;63;
73623;PMS5003;61921;53.226;-1.296;2023-05-14T02:35:03;70;64;
73623;PMS5003;61921;53.226;-1.296;2023-05-14T02:37:28;76;66;
73623;PMS5003;61921;53.226;-1.296;2023-05-14T02:39:53;73;65;
73623;PMS5003;61921;53.226;-1.296;2023-05-14T02:42:19;55;54;
73623;PMS5003;61921;53.226;-1.296;2023-05-14T02:44:44;66;63;
73623;PMS5003;61921;53.226;-1.296;2023-05-14T02:47:10;67;59;
73623;PMS5003;61921;53.226;-1.296;2023-05-14T02:49:36;72;65;
73623;PMS5003;61921;53.226;-1.296;2023-05-14T02:52:01;71;60;
73623;PMS5003;61921;53.226;-1.296;2023-05-14T02:54:26;64;60;
73623;PMS5003;61921;53.226;-1.296;2023-05-14T02:56:51;59;56;
73623;PMS5003;61921;53.226;-1.296;2023-05-14T02:59:17;72;63;
73623;PMS5003;61921;53.226;-1.296;2023-05-14T03:01:42;69;64;
73623;PMS5003;61921;53.226;-1.296;2023-05-14T03:04:07;71;65;
73623;PMS5003;61921;53.226;-1.296;2023-05-14T03:06:33;65;59;
73623;PMS5003;61921;53.226;-1.296;2023-05-14T03:08:58;66;64;
73623;PMS5003;61921;53.226;-1.296;2023-05-14T03:11:23;73;69;
73623;PMS5003;61921;53.226;-1.296;2023-05-14T03:13:49;73;63;
73623;PMS5003;61921;53.226;-1.296;2023-05-14T03:16:14;72;64;
73623;PMS5003;61921;53.226;-1.296;2023-05-14T03:18:40;64;64;
73623;PMS5003;61921;53.226;-1.296;2023-05-14T03:21:06;71;70;
73623;PMS5003;61921;53.226;-1.296;2023-05-14T03:23:31;76;70;
73623;PMS5003;61921;53.226;-1.296;2023-05-14T03:25:56;63;59;
73623;PMS5003;61921;53.226;-1.296;2023-05-14T03:28:22;68;63;
73623;PMS5003;61921;53.226;-1.296;2023-05-14T03:30:47;67;64;
73623;PMS5003;61921;53.226;-1.296;2023-05-14T03:33:13;75;66;
73623;PMS5003;61921;53.226;-1.296;2023-05-14T03:35:38;68;65;
73623;PMS5003;61921;53.226;-1.296;2023-05-14T03:38:04;73;68;
73623;PMS5003;61921;53.226;-1.296;2023-05-14T03:40:29;67;61;
73623;PMS5003;61921;53.226;-1.296;2023-05-14T03:42:55;70;63;
73623;PMS5003;61921;53.226;-1.296;2023-05-14T03:45:21;71;63;
73623;PMS5003;61921;53.226;-1.296;2023-05-14T03:47:46;73;72;
73623;PMS5003;61921;53.226;-1.296;2023-05-14T03:50:12;72;65;
73623;PMS5003;61921;53.226;-1.296;2023-05-14T03:52:37;69;63;
73623;PMS5003;61921;53.226;-1.296;2023-05-14T03:55:03;72;69;
73623;PMS5003;61921;53.226;-1.296;2023-05-14T03:57:28;75;66;
73623;PMS5003;61921;53.226;-1.296;2023-05-14T03:59:54;71;68;
73623;PMS5003;61921;53.226;-1.296;2023-05-14T04:02:19;79;72;
73623;PMS5003;61921;53.226;-1.296;2023-05-14T04:04:44;70;64;
73623;PMS5003;61921;53.226;-1.296;2023-05-14T04:07:10;69;66;
73623;PMS5003;61921;53.226;-1.296;2023-05-14T04:09:36;66;64;
73623;PMS5003;61921;53.226;-1.296;2023-05-14T04:12:01;63;59;
73623;PMS5003;61921;53.226;-1.296;2023-05-14T04:14:27;68;65;
73623;PMS5003;61921;53.226;-1.296;2023-05-14T04:16:52;72;68;
73623;PMS5003;61921;53.226;-1.296;2023-05-14T04:19:18;83;71;
73623;PMS5003;61921;53.226;-1.296;2023-05-14T04:21:43;81;70;
73623;PMS5003;61921;53.226;-1.296;2023-05-14T04:24:08;74;72;
73623;PMS5003;61921;53.226;-1.296;2023-05-14T04:26:33;69;64;
73623;PMS5003;61921;53.226;-1.296;2023-05-14T04:28:59;81;73;
73623;PMS5003;61921;53.226;-1.296;2023-05-14T04:31:24;76;72;
73623;PMS5003;61921;53.226;-1.296;2023-05-14T04:33:50;70;66;
73623;PMS5003;61921;53.226;-1.296;2023-05-14T04:36:15;81;75;
73623;PMS5003;61921;53.226;-1.296;2023-05-14T04:38:41;80;73;
73623;PMS5003;61921;53.226;-1.296;2023-05-14T04:41:06;76;71;
73623;PMS5003;61921;53.226;-1.296;2023-05-14T04:43:32;74;70;
73623;PMS5003;61921;53.226;-1.296;2023-05-14T04:45:57;70;66;
73623;PMS5003;61921;53.226;-1.296;2023-05-14T04:48:22;80;73;
73623;PMS5003;61921;53.226;-1.296;2023-05-14T04:50:48;82;76;
73623;PMS5003;61921;53.226;-1.296;2023-05-14T04:53:13;80;70;
73623;PMS5003;61921;53.226;-1.296;2023-05-14T04:55:38;71;67;
73623;PMS5003;61921;53.226;-1.296;2023-05-14T04:58:03;79;72;
73623;PMS5003;61921;53.226;-1.296;2023-05-14T05:00:29;75;66;
73623;PMS5003;61921;53.226;-1.296;2023-05-14T05:02:54;77;67;
73623;PMS5003;61921;53.226;-1.296;2023-05-14T05:05:19;75;70;
73623;PMS5003;61921;53.226;-1.296;2023-05-14T05:07:45;70;65;
73623;PMS5003;61921;53.226;-1.296;2023-05-14T05:10:10;91;79;
73623;PMS5003;61921;53.226;-1.296;2023-05-14T05:12:35;81;72;
73623;PMS5003;61921;53.226;-1.296;2023-05-14T05:15:01;69;63;
73623;PMS5003;61921;53.226;-1.296;2023-05-14T05:17:27;82;72;
73623;PMS5003;61921;53.226;-1.296;2023-05-14T05:19:52;83;68;
73623;PMS5003;61921;53.226;-1.296;2023-05-14T05:22:17;87;74;
73623;PMS5003;61921;53.226;-1.296;2023-05-14T05:24:42;78;70;
73623;PMS5003;61921;53.226;-1.296;2023-05-14T05:27:08;82;75;
73623;PMS5003;61921;53.226;-1.296;2023-05-14T05:29:35;71;62;
73623;PMS5003;61921;53.226;-1.296;2023-05-14T05:31:58;73;66;
73623;PMS5003;61921;53.226;-1.296;2023-05-14T05:34:24;77;71;
73623;PMS5003;61921;53.226;-1.296;2023-05-14T05:36:49;71;66;
73623;PMS5003;61921;53.226;-1.296;2023-05-14T05:39:15;71;64;
73623;PMS5003;61921;53.226;-1.296;2023-05-14T05:41:40;71;66;
73623;PMS5003;61921;53.226;-1.296;2023-05-14T05:44:06;65;60;
73623;PMS5003;61921;53.226;-1.296;2023-05-14T05:46:36;67;66;
73623;PMS5003;61921;53.226;-1.296;2023-05-14T05:48:56;64;61;
73623;PMS5003;61921;53.226;-1.296;2023-05-14T05:51:22;64;61;
73623;PMS5003;61921;53.226;-1.296;2023-05-14T05:53:47;67;63;
73623;PMS5003;61921;53.226;-1.296;2023-05-14T05:56:13;73;67;
73623;PMS5003;61921;53.226;-1.296;2023-05-14T05:58:39;63;61;
73623;PMS5003;61921;53.226;-1.296;2023-05-14T06:01:04;70;66;
73623;PMS5003;61921;53.226;-1.296;2023-05-14T06:03:30;65;60;
73623;PMS5003;61921;53.226;-1.296;2023-05-14T06:05:55;69;64;
73623;PMS5003;61921;53.226;-1.296;2023-05-14T06:08:21;73;69;
73623;PMS5003;61921;53.226;-1.296;2023-05-14T06:10:46;64;62;
73623;PMS5003;61921;53.226;-1.296;2023-05-14T06:13:11;67;61;
73623;PMS5003;61921;53.226;-1.296;2023-05-14T06:15:37;66;59;
73623;PMS5003;61921;53.226;-1.296;2023-05-14T06:18:02;63;58;
73623;PMS5003;61921;53.226;-1.296;2023-05-14T06:20:27;68;64;
73623;PMS5003;61921;53.226;-1.296;2023-05-14T06:22:52;76;66;
73623;PMS5003;61921;53.226;-1.296;2023-05-14T06:25:18;60;57;
73623;PMS5003;61921;53.226;-1.296;2023-05-14T06:27:43;68;62;
73623;PMS5003;61921;53.226;-1.296;2023-05-14T06:30:09;68;61;
73623;PMS5003;61921;53.226;-1.296;2023-05-14T06:32:34;63;59;
73623;PMS5003;61921;53.226;-1.296;2023-05-14T06:34:59;65;57;
73623;PMS5003;61921;53.226;-1.296;2023-05-14T06:37:24;66;63;
73623;PMS5003;61921;53.226;-1.296;2023-05-14T06:39:49;70;61;
73623;PMS5003;61921;53.226;-1.296;2023-05-14T06:42:15;69;64;
73623;PMS5003;61921;53.226;-1.296;2023-05-14T06:44:40;65;60;
73623;PMS5003;61921;53.226;-1.296;2023-05-14T06:47:06;65;61;
73623;PMS5003;61921;53.226;-1.296;2023-05-14T06:49:32;73;66;
73623;PMS5003;61921;53.226;-1.296;2023-05-14T06:51:57;61;59;
73623;PMS5003;61921;53.226;-1.296;2023-05-14T06:54:23;73;67;
73623;PMS5003;61921;53.226;-1.296;2023-05-14T06:56:48;68;63;
73623;PMS5003;61921;53.226;-1.296;2023-05-14T06:59:14;66;64;
73623;PMS5003;61921;53.226;-1.296;2023-05-14T07:01:40;61;57;
73623;PMS5003;61921;53.226;-1.296;2023-05-14T07:04:05;68;58;
73623;PMS5003;61921;53.226;-1.296;2023-05-14T07:06:31;67;63;
73623;PMS5003;61921;53.226;-1.296;2023-05-14T07:08:56;85;77;
73623;PMS5003;61921;53.226;-1.296;2023-05-14T07:11:21;66;62;
73623;PMS5003;61921;53.226;-1.296;2023-05-14T07:13:47;63;58;
73623;PMS5003;61921;53.226;-1.296;2023-05-14T07:16:13;70;62;
73623;PMS5003;61921;53.226;-1.296;2023-05-14T07:18:38;66;62;
73623;PMS5003;61921;53.226;-1.296;2023-05-14T07:21:04;72;64;
73623;PMS5003;61921;53.226;-1.296;2023-05-14T07:23:29;62;56;
73623;PMS5003;61921;53.226;-1.296;2023-05-14T07:25:55;60;58;
73623;PMS5003;61921;53.226;-1.296;2023-05-14T07:28:20;73;64;
73623;PMS5003;61921;53.226;-1.296;2023-05-14T07:30:46;67;63;
73623;PMS5003;61921;53.226;-1.296;2023-05-14T07:33:12;63;59;
73623;PMS5003;61921;53.226;-1.296;2023-05-14T07:35:37;66;63;
73623;PMS5003;61921;53.226;-1.296;2023-05-14T07:38:03;63;61;
73623;PMS5003;61921;53.226;-1.296;2023-05-14T07:40:28;66;61;
73623;PMS5003;61921;53.226;-1.296;2023-05-14T07:42:53;62;61;
73623;PMS5003;61921;53.226;-1.296;2023-05-14T07:45:19;71;65;
73623;PMS5003;61921;53.226;-1.296;2023-05-14T07:47:45;64;59;
73623;PMS5003;61921;53.226;-1.296;2023-05-14T07:50:10;63;56;
73623;PMS5003;61921;53.226;-1.296;2023-05-14T07:52:36;63;55;
73623;PMS5003;61921;53.226;-1.296;2023-05-14T07:55:01;60;59;
73623;PMS5003;61921;53.226;-1.296;2023-05-14T07:57:27;68;62;
73623;PMS5003;61921;53.226;-1.296;2023-05-14T07:59:53;66;63;
73623;PMS5003;61921;53.226;-1.296;2023-05-14T08:02:18;60;56;
73623;PMS5003;61921;53.226;-1.296;2023-05-14T08:04:45;64;59;
73623;PMS5003;61921;53.226;-1.296;2023-05-14T08:07:09;60;57;
73623;PMS5003;61921;53.226;-1.296;2023-05-14T08:09:35;62;59;
73623;PMS5003;61921;53.226;-1.296;2023-05-14T08:12:00;63;59;
73623;PMS5003;61921;53.226;-1.296;2023-05-14T08:14:26;66;62;
73623;PMS5003;61921;53.226;-1.296;2023-05-14T08:16:51;64;63;
73623;PMS5003;61921;53.226;-1.296;2023-05-14T08:19:16;63;56;
73623;PMS5003;61921;53.226;-1.296;2023-05-14T08:21:41;76;69;
73623;PMS5003;61921;53.226;-1.296;2023-05-14T08:24:07;68;64;
73623;PMS5003;61921;53.226;-1.296;2023-05-14T08:26:32;65;56;
73623;PMS5003;61921;53.226;-1.296;2023-05-14T08:28:57;63;57;
73623;PMS5003;61921;53.226;-1.296;2023-05-14T08:31:23;64;59;
73623;PMS5003;61921;53.226;-1.296;2023-05-14T08:33:48;62;56;
73623;PMS5003;61921;53.226;-1.296;2023-05-14T08:36:14;60;56;
73623;PMS5003;61921;53.226;-1.296;2023-05-14T08:38:40;56;52;
73623;PMS5003;61921;53.226;-1.296;2023-05-14T08:41:05;60;57;
73623;PMS5003;61921;53.226;-1.296;2023-05-14T08:43:34;55;51;
73623;PMS5003;61921;53.226;-1.296;2023-05-14T08:45:57;61;58;
73623;PMS5003;61921;53.226;-1.296;2023-05-14T08:48:22;57;50;
73623;PMS5003;61921;53.226;-1.296;2023-05-14T08:50:47;59;58;
73623;PMS5003;61921;53.226;-1.296;2023-05-14T08:53:13;59;56;
73623;PMS5003;61921;53.226;-1.296;2023-05-14T08:55:39;52;51;
73623;PMS5003;61921;53.226;-1.296;2023-05-14T08:58:04;55;53;
73623;PMS5003;61921;53.226;-1.296;2023-05-14T09:00:29;63;59;
73623;PMS5003;61921;53.226;-1.296;2023-05-14T09:02:55;65;59;
73623;PMS5003;61921;53.226;-1.296;2023-05-14T09:05:20;59;55;
73623;PMS5003;61921;53.226;-1.296;2023-05-14T09:07:46;60;53;
73623;PMS5003;61921;53.226;-1.296;2023-05-14T09:10:11;54;50;
73623;PMS5003;61921;53.226;-1.296;2023-05-14T09:12:37;57;54;
73623;PMS5003;61921;53.226;-1.296;2023-05-14T09:15:03;55;53;
73623;PMS5003;61921;53.226;-1.296;2023-05-14T09:17:28;62;59;
73623;PMS5003;61921;53.226;-1.296;2023-05-14T09:19:53;55;51;
73623;PMS5003;61921;53.226;-1.296;2023-05-14T09:22:18;56;53;
73623;PMS5003;61921;53.226;-1.296;2023-05-14T09:24:44;56;53;
73623;PMS5003;61921;53.226;-1.296;2023-05-14T09:27:14;55;52;
73623;PMS5003;61921;53.226;-1.296;2023-05-14T09:29:34;54;52;
73623;PMS5003;61921;53.226;-1.296;2023-05-14T09:32:00;49;49;
73623;PMS5003;61921;53.226;-1.296;2023-05-14T09:34:26;58;54;
73623;PMS5003;61921;53.226;-1.296;2023-05-14T09:36:53;53;52;
73623;PMS5003;61921;53.226;-1.296;2023-05-14T09:39:17;55;49;
73623;PMS5003;61921;53.226;-1.296;2023-05-14T09:41:42;44;43;
73623;PMS5003;61921;53.226;-1.296;2023-05-14T09:44:08;59;51;
73623;PMS5003;61921;53.226;-1.296;2023-05-14T09:46:33;52;47;
73623;PMS5003;61921;53.226;-1.296;2023-05-14T09:48:58;53;48;
73623;PMS5003;61921;53.226;-1.296;2023-05-14T09:51:23;46;43;
73623;PMS5003;61921;53.226;-1.296;2023-05-14T09:53:49;55;48;
73623;PMS5003;61921;53.226;-1.296;2023-05-14T09:56:14;46;42;
73623;PMS5003;61921;53.226;-1.296;2023-05-14T09:58:40;51;48;
73623;PMS5003;61921;53.226;-1.296;2023-05-14T10:01:05;47;41;
73623;PMS5003;61921;53.226;-1.296;2023-05-14T10:03:30;46;45;
73623;PMS5003;61921;53.226;-1.296;2023-05-14T10:05:56;45;45;
73623;PMS5003;61921;53.226;-1.296;2023-05-14T10:08:23;42;41;
73623;PMS5003;61921;53.226;-1.296;2023-05-14T10:10:47;49;45;
73623;PMS5003;61921;53.226;-1.296;2023-05-14T10:13:13;52;46;
73623;PMS5003;61921;53.226;-1.296;2023-05-14T10:15:39;43;43;
73623;PMS5003;61921;53.226;-1.296;2023-05-14T10:18:05;49;44;
73623;PMS5003;61921;53.226;-1.296;2023-05-14T10:20:29;46;44;
73623;PMS5003;61921;53.226;-1.296;2023-05-14T10:22:54;46;44;
73623;PMS5003;61921;53.226;-1.296;2023-05-14T10:25:20;45;43;
73623;PMS5003;61921;53.226;-1.296;2023-05-14T10:27:46;41;38;
73623;PMS5003;61921;53.226;-1.296;2023-05-14T10:30:11;46;42;
73623;PMS5003;61921;53.226;-1.296;2023-05-14T10:32:36;40;39;
73623;PMS5003;61921;53.226;-1.296;2023-05-14T10:35:06;43;42;
73623;PMS5003;61921;53.226;-1.296;2023-05-14T10:37:27;44;44;
73623;PMS5003;61921;53.226;-1.296;2023-05-14T10:39:53;51;44;
73623;PMS5003;61921;53.226;-1.296;2023-05-14T10:42:19;44;42;
73623;PMS5003;61921;53.226;-1.296;2023-05-14T10:44:46;46;44;
73623;PMS5003;61921;53.226;-1.296;2023-05-14T10:47:10;46;45;
73623;PMS5003;61921;53.226;-1.296;2023-05-14T10:49:35;43;41;
73623;PMS5003;61921;53.226;-1.296;2023-05-14T10:52:00;38;37;
73623;PMS5003;61921;53.226;-1.296;2023-05-14T10:54:26;40;39;
73623;PMS5003;61921;53.226;-1.296;2023-05-14T10:56:50;42;41;
73623;PMS5003;61921;53.226;-1.296;2023-05-14T10:59:16;42;38;
73623;PMS5003;61921;53.226;-1.296;2023-05-14T11:01:42;43;41;
73623;PMS5003;61921;53.226;-1.296;2023-05-14T11:04:07;40;37;
73623;PMS5003;61921;53.226;-1.296;2023-05-14T11:06:33;42;41;
73623;PMS5003;61921;53.226;-1.296;2023-05-14T11:08:58;37;36;
73623;PMS5003;61921;53.226;-1.296;2023-05-14T11:11:24;45;38;
73623;PMS5003;61921;53.226;-1.296;2023-05-14T11:13:49;33;31;
73623;PMS5003;61921;53.226;-1.296;2023-05-14T11:16:14;41;38;
73623;PMS5003;61921;53.226;-1.296;2023-05-14T11:18:40;36;34;
73623;PMS5003;61921;53.226;-1.296;2023-05-14T11:21:05;40;36;
73623;PMS5003;61921;53.226;-1.296;2023-05-14T11:23:30;35;32;
73623;PMS5003;61921;53.226;-1.296;2023-05-14T11:25:56;38;36;
73623;PMS5003;61921;53.226;-1.296;2023-05-14T11:28:22;35;34;
73623;PMS5003;61921;53.226;-1.296;2023-05-14T11:30:47;30;28;
73623;PMS5003;61921;53.226;-1.296;2023-05-14T11:33:13;38;33;
73623;PMS5003;61921;53.226;-1.296;2023-05-14T11:35:38;35;34;
73623;PMS5003;61921;53.226;-1.296;2023-05-14T11:38:04;41;36;
73623;PMS5003;61921;53.226;-1.296;2023-05-14T11:40:29;42;38;
73623;PMS5003;61921;53.226;-1.296;2023-05-14T11:42:54;38;37;
73623;PMS5003;61921;53.226;-1.296;2023-05-14T11:45:23;40;39;
73623;PMS5003;61921;53.226;-1.296;2023-05-14T11:47:45;43;41;
73623;PMS5003;61921;53.226;-1.296;2023-05-14T11:50:10;40;38;
73623;PMS5003;61921;53.226;-1.296;2023-05-14T11:52:36;44;42;
73623;PMS5003;61921;53.226;-1.296;2023-05-14T11:55:01;50;42;
73623;PMS5003;61921;53.226;-1.296;2023-05-14T11:57:27;42;37;
73623;PMS5003;61921;53.226;-1.296;2023-05-14T11:59:54;46;44;
73623;PMS5003;61921;53.226;-1.296;2023-05-14T12:02:18;40;40;
73623;PMS5003;61921;53.226;-1.296;2023-05-14T12:04:48;34;34;
73623;PMS5003;61921;53.226;-1.296;2023-05-14T12:07:10;35;34;
73623;PMS5003;61921;53.226;-1.296;2023-05-14T12:09:35;36;36;
73623;PMS5003;61921;53.226;-1.296;2023-05-14T12:12:06;41;37;
73623;PMS5003;61921;53.226;-1.296;2023-05-14T12:14:25;46;39;
73623;PMS5003;61921;53.226;-1.296;2023-05-14T12:16:51;39;36;
73623;PMS5003;61921;53.226;-1.296;2023-05-14T12:19:16;35;33;
73623;PMS5003;61921;53.226;-1.296;2023-05-14T12:21:42;44;42;
73623;PMS5003;61921;53.226;-1.296;2023-05-14T12:24:08;42;40;
73623;PMS5003;61921;53.226;-1.296;2023-05-14T12:26:32;46;42;
73623;PMS5003;61921;53.226;-1.296;2023-05-14T12:28:58;45;44;
73623;PMS5003;61921;53.226;-1.296;2023-05-14T12:31:26;37;35;
73623;PMS5003;61921;53.226;-1.296;2023-05-14T12:33:49;34;33;
73623;PMS5003;61921;53.226;-1.296;2023-05-14T12:36:14;38;38;
73623;PMS5003;61921;53.226;-1.296;2023-05-14T12:38:40;38;36;
73623;PMS5003;61921;53.226;-1.296;2023-05-14T12:41:06;36;35;
73623;PMS5003;61921;53.226;-1.296;2023-05-14T12:43:31;42;39;
73623;PMS5003;61921;53.226;-1.296;2023-05-14T12:45:57;34;33;
73623;PMS5003;61921;53.226;-1.296;2023-05-14T12:48:22;48;43;
73623;PMS5003;61921;53.226;-1.296;2023-05-14T12:50:47;44;41;
73623;PMS5003;61921;53.226;-1.296;2023-05-14T12:53:13;31;30;
73623;PMS5003;61921;53.226;-1.296;2023-05-14T12:55:39;33;31;
73623;PMS5003;61921;53.226;-1.296;2023-05-14T12:58:04;38;36;
73623;PMS5003;61921;53.226;-1.296;2023-05-14T13:00:30;32;31;
73623;PMS5003;61921;53.226;-1.296;2023-05-14T13:02:55;28;27;
73623;PMS5003;61921;53.226;-1.296;2023-05-14T13:05:21;30;28;
73623;PMS5003;61921;53.226;-1.296;2023-05-14T13:07:46;33;32;
73623;PMS5003;61921;53.226;-1.296;2023-05-14T13:10:12;32;29;
73623;PMS5003;61921;53.226;-1.296;2023-05-14T13:12:37;25;22;
73623;PMS5003;61921;53.226;-1.296;2023-05-14T13:15:03;11;11;
73623;PMS5003;61921;53.226;-1.296;2023-05-14T13:17:28;9;9;
73623;PMS5003;61921;53.226;-1.296;2023-05-14T13:19:54;8;8;
73623;PMS5003;61921;53.226;-1.296;2023-05-14T13:22:20;9;9;
73623;PMS5003;61921;53.226;-1.296;2023-05-14T13:24:45;9;9;
73623;PMS5003;61921;53.226;-1.296;2023-05-14T13:27:11;9;6;
73623;PMS5003;61921;53.226;-1.296;2023-05-14T13:29:37;9;9;
73623;PMS5003;61921;53.226;-1.296;2023-05-14T13:32:02;8;7;
73623;PMS5003;61921;53.226;-1.296;2023-05-14T13:34:27;9;9;
73623;PMS5003;61921;53.226;-1.296;2023-05-14T13:36:52;12;12;
73623;PMS5003;61921;53.226;-1.296;2023-05-14T13:39:17;8;8;
73623;PMS5003;61921;53.226;-1.296;2023-05-14T13:41:42;7;7;
73623;PMS5003;61921;53.226;-1.296;2023-05-14T13:44:07;4;4;
73623;PMS5003;61921;53.226;-1.296;2023-05-14T13:46:33;9;8;
73623;PMS5003;61921;53.226;-1.296;2023-05-14T13:48:59;6;6;
73623;PMS5003;61921;53.226;-1.296;2023-05-14T13:51:24;6;6;
73623;PMS5003;61921;53.226;-1.296;2023-05-14T13:53:50;7;6;
73623;PMS5003;61921;53.226;-1.296;2023-05-14T13:56:15;4;4;
73623;PMS5003;61921;53.226;-1.296;2023-05-14T13:58:41;6;6;
73623;PMS5003;61921;53.226;-1.296;2023-05-14T14:01:07;3;2;
73623;PMS5003;61921;53.226;-1.296;2023-05-14T14:03:33;7;6;
73623;PMS5003;61921;53.226;-1.296;2023-05-14T14:06:00;5;5;
73623;PMS5003;61921;53.226;-1.296;2023-05-14T14:08:24;5;5;
73623;PMS5003;61921;53.226;-1.296;2023-05-14T14:10:51;5;5;
73623;PMS5003;61921;53.226;-1.296;2023-05-14T14:13:16;5;5;
73623;PMS5003;61921;53.226;-1.296;2023-05-14T14:15:42;6;6;
73623;PMS5003;61921;53.226;-1.296;2023-05-14T14:18:08;7;7;
73623;PMS5003;61921;53.226;-1.296;2023-05-14T14:20:34;4;4;
73623;PMS5003;61921;53.226;-1.296;2023-05-14T14:23:00;5;5;
73623;PMS5003;61921;53.226;-1.296;2023-05-14T14:25:25;6;5;
73623;PMS5003;61921;53.226;-1.296;2023-05-14T14:27:51;5;4;
73623;PMS5003;61921;53.226;-1.296;2023-05-14T14:30:17;4;4;
73623;PMS5003;61921;53.226;-1.296;2023-05-14T14:32:43;4;4;
73623;PMS5003;61921;53.226;-1.296;2023-05-14T14:35:09;4;4;
73623;PMS5003;61921;53.226;-1.296;2023-05-14T14:37:35;2;2;
73623;PMS5003;61921;53.226;-1.296;2023-05-14T14:40:00;4;4;
73623;PMS5003;61921;53.226;-1.296;2023-05-14T14:42:26;4;4;
73623;PMS5003;61921;53.226;-1.296;2023-05-14T14:44:52;5;4;
73623;PMS5003;61921;53.226;-1.296;2023-05-14T14:47:18;5;4;
73623;PMS5003;61921;53.226;-1.296;2023-05-14T14:49:44;6;5;
73623;PMS5003;61921;53.226;-1.296;2023-05-14T14:52:10;4;4;
73623;PMS5003;61921;53.226;-1.296;2023-05-14T14:54:35;4;4;
73623;PMS5003;61921;53.226;-1.296;2023-05-14T14:57:01;5;3;
73623;PMS5003;61921;53.226;-1.296;2023-05-14T14:59:27;4;4;
73623;PMS5003;61921;53.226;-1.296;2023-05-14T15:01:53;5;4;
73623;PMS5003;61921;53.226;-1.296;2023-05-14T15:04:19;7;7;
73623;PMS5003;61921;53.226;-1.296;2023-05-14T15:06:45;7;7;
73623;PMS5003;61921;53.226;-1.296;2023-05-14T15:09:11;5;5;
73623;PMS5003;61921;53.226;-1.296;2023-05-14T15:11:36;4;4;
73623;PMS5003;61921;53.226;-1.296;2023-05-14T15:14:01;6;6;
73623;PMS5003;61921;53.226;-1.296;2023-05-14T15:16:26;6;5;
73623;PMS5003;61921;53.226;-1.296;2023-05-14T15:18:51;6;5;
73623;PMS5003;61921;53.226;-1.296;2023-05-14T15:21:16;7;7;
73623;PMS5003;61921;53.226;-1.296;2023-05-14T15:23:41;6;6;
73623;PMS5003;61921;53.226;-1.296;2023-05-14T15:26:06;10;10;
73623;PMS5003;61921;53.226;-1.296;2023-05-14T15:28:31;8;8;
73623;PMS5003;61921;53.226;-1.296;2023-05-14T15:30:56;8;8;
73623;PMS5003;61921;53.226;-1.296;2023-05-14T15:33:22;9;8;
73623;PMS5003;61921;53.226;-1.296;2023-05-14T15:35:47;10;9;
73623;PMS5003;61921;53.226;-1.296;2023-05-14T15:38:12;12;11;
73623;PMS5003;61921;53.226;-1.296;2023-05-14T15:40:37;8;8;
73623;PMS5003;61921;53.226;-1.296;2023-05-14T15:43:03;6;6;
73623;PMS5003;61921;53.226;-1.296;2023-05-14T15:45:27;4;4;
73623;PMS5003;61921;53.226;-1.296;2023-05-14T15:47:52;9;9;
73623;PMS5003;61921;53.226;-1.296;2023-05-14T15:50:18;9;8;
73623;PMS5003;61921;53.226;-1.296;2023-05-14T15:52:42;9;8;
73623;PMS5003;61921;53.226;-1.296;2023-05-14T15:55:08;9;8;